createdAt,value
2016-12-21T00:00:46.527Z,0
2016-12-21T00:01:45.091Z,0
2016-12-21T00:02:45.670Z,0
2016-12-21T00:03:45.782Z,0
2016-12-21T00:04:45.738Z,0
2016-12-21T00:05:45.385Z,0
2016-12-21T00:06:46.065Z,0
2016-12-21T00:07:45.811Z,0
2016-12-21T00:08:45.867Z,0
2016-12-21T00:09:46.664Z,0
2016-12-21T00:10:45.730Z,0
2016-12-21T00:11:46.744Z,0
2016-12-21T00:12:45.746Z,0
2016-12-21T00:13:45.803Z,0
2016-12-21T00:14:46.175Z,0
2016-12-21T00:15:46.079Z,0
2016-12-21T00:16:45.869Z,0
2016-12-21T00:17:46.412Z,0
2016-12-21T00:18:45.789Z,0
2016-12-21T00:19:46.793Z,0
2016-12-21T00:20:47.036Z,0
2016-12-21T00:21:45.499Z,0
2016-12-21T00:22:46.488Z,0
2016-12-21T00:23:45.823Z,0
2016-12-21T00:24:45.517Z,0
2016-12-21T00:25:46.205Z,0
2016-12-21T00:26:45.266Z,0
2016-12-21T00:27:45.898Z,0
2016-12-21T00:28:46.171Z,0
2016-12-21T00:29:46.894Z,0
2016-12-21T00:30:45.609Z,0
2016-12-21T00:31:45.980Z,0
2016-12-21T00:32:46.257Z,0
2016-12-21T00:33:46.595Z,0
2016-12-21T00:34:45.958Z,0
2016-12-21T00:35:48.061Z,0
2016-12-21T00:36:45.651Z,0
2016-12-21T00:37:46.292Z,0
2016-12-21T00:38:46.088Z,0
2016-12-21T00:39:45.969Z,0
2016-12-21T00:40:46.262Z,0
2016-12-21T00:41:46.056Z,0
2016-12-21T00:42:46.014Z,0
2016-12-21T00:43:45.812Z,0
2016-12-21T00:44:46.270Z,0
2016-12-21T00:45:46.084Z,0
2016-12-21T00:46:45.675Z,0
2016-12-21T00:47:46.049Z,0
2016-12-21T00:48:46.953Z,0
2016-12-21T00:49:46.106Z,0
2016-12-21T00:50:46.377Z,0
2016-12-21T00:51:46.436Z,0
2016-12-21T00:52:46.448Z,0
2016-12-21T00:53:45.778Z,0
2016-12-21T00:54:46.411Z,0
2016-12-21T00:55:46.467Z,0
2016-12-21T00:56:46.114Z,0
2016-12-21T00:57:48.252Z,0
2016-12-21T00:58:46.467Z,0
2016-12-21T00:59:46.621Z,0
2016-12-21T01:00:46.093Z,0
2016-12-21T01:01:46.458Z,0
2016-12-21T01:02:46.463Z,0
2016-12-21T01:03:46.112Z,0
2016-12-21T01:04:46.727Z,0
2016-12-21T01:05:46.226Z,0
2016-12-21T01:06:46.134Z,0
2016-12-21T01:07:46.194Z,0
2016-12-21T01:08:47.870Z,0
2016-12-21T01:09:45.837Z,0
2016-12-21T01:10:46.772Z,0
2016-12-21T01:11:46.167Z,0
2016-12-21T01:12:46.169Z,0
2016-12-21T01:13:46.228Z,0
2016-12-21T01:14:46.553Z,0
2016-12-21T01:15:46.243Z,0
2016-12-21T01:16:46.661Z,0
2016-12-21T01:17:46.517Z,0
2016-12-21T01:18:46.264Z,0
2016-12-21T01:19:47.860Z,0
2016-12-21T01:20:45.968Z,0
2016-12-21T01:21:46.548Z,0
2016-12-21T01:22:46.290Z,0
2016-12-21T01:23:46.250Z,0
2016-12-21T01:24:46.311Z,0
2016-12-21T01:25:46.314Z,0
2016-12-21T01:26:46.630Z,0
2016-12-21T01:27:46.330Z,0
2016-12-21T01:28:46.599Z,0
2016-12-21T01:29:46.294Z,0
2016-12-21T01:30:47.649Z,0
2016-12-21T01:31:46.351Z,0
2016-12-21T01:32:46.673Z,0
2016-12-21T01:33:46.945Z,0
2016-12-21T01:34:47.797Z,0
2016-12-21T01:35:46.460Z,0
2016-12-21T01:36:46.128Z,0
2016-12-21T01:37:46.776Z,0
2016-12-21T01:38:46.762Z,0
2016-12-21T01:39:46.409Z,0
2016-12-21T01:40:46.707Z,0
2016-12-21T01:41:47.539Z,0
2016-12-21T01:42:46.433Z,0
2016-12-21T01:43:47.000Z,0
2016-12-21T01:44:47.091Z,0
2016-12-21T01:45:47.451Z,0
2016-12-21T01:46:46.720Z,0
2016-12-21T01:47:46.466Z,0
2016-12-21T01:48:46.470Z,0
2016-12-21T01:49:46.531Z,0
2016-12-21T01:50:46.539Z,0
2016-12-21T01:51:46.230Z,0
2016-12-21T01:52:46.887Z,0
2016-12-21T01:53:46.459Z,0
2016-12-21T01:54:46.525Z,0
2016-12-21T01:55:46.829Z,0
2016-12-21T01:56:47.729Z,0
2016-12-21T01:58:12.209Z,0
2016-12-21T01:58:46.596Z,0
2016-12-21T01:59:46.813Z,0
2016-12-21T02:00:46.197Z,0
2016-12-21T02:01:46.561Z,0
2016-12-21T02:02:46.831Z,0
2016-12-21T02:03:47.201Z,0
2016-12-21T02:04:46.633Z,0
2016-12-21T02:05:48.510Z,0
2016-12-21T02:06:46.912Z,0
2016-12-21T02:07:47.003Z,0
2016-12-21T02:08:46.981Z,0
2016-12-21T02:09:46.616Z,0
2016-12-21T02:10:46.989Z,0
2016-12-21T02:11:46.371Z,0
2016-12-21T02:12:47.262Z,0
2016-12-21T02:13:47.008Z,0
2016-12-21T02:14:46.704Z,0
2016-12-21T02:15:47.078Z,0
2016-12-21T02:16:48.231Z,0
2016-12-21T02:17:46.671Z,0
2016-12-21T02:18:47.043Z,0
2016-12-21T02:19:46.997Z,0
2016-12-21T02:20:48.473Z,0
2016-12-21T02:21:46.647Z,0
2016-12-21T02:22:47.106Z,0
2016-12-21T02:23:47.128Z,0
2016-12-21T02:24:47.088Z,0
2016-12-21T02:25:47.086Z,0
2016-12-21T02:26:46.763Z,0
2016-12-21T02:27:48.005Z,0
2016-12-21T02:28:46.998Z,0
2016-12-21T02:29:47.071Z,0
2016-12-21T02:30:46.832Z,0
2016-12-21T02:31:46.554Z,0
2016-12-21T02:32:47.035Z,0
2016-12-21T02:33:47.099Z,0
2016-12-21T02:34:47.102Z,0
2016-12-21T02:35:46.746Z,0
2016-12-21T02:36:46.802Z,0
2016-12-21T02:37:46.138Z,0
2016-12-21T02:38:48.140Z,0
2016-12-21T02:39:46.875Z,0
2016-12-21T02:40:47.196Z,0
2016-12-21T02:41:47.203Z,0
2016-12-21T02:42:48.540Z,0
2016-12-21T02:43:46.898Z,0
2016-12-21T02:44:46.598Z,0
2016-12-21T02:45:46.816Z,0
2016-12-21T02:46:47.193Z,0
2016-12-21T02:47:46.827Z,0
2016-12-21T02:48:46.843Z,0
2016-12-21T02:49:47.341Z,0
2016-12-21T02:50:46.952Z,0
2016-12-21T02:51:47.632Z,0
2016-12-21T02:52:46.864Z,0
2016-12-21T02:53:48.233Z,0
2016-12-21T02:54:47.185Z,0
2016-12-21T02:55:47.040Z,0
2016-12-21T02:56:46.940Z,0
2016-12-21T02:57:46.947Z,0
2016-12-21T02:58:47.268Z,0
2016-12-21T02:59:46.646Z,0
2016-12-21T03:00:47.020Z,0
2016-12-21T03:01:47.131Z,0
2016-12-21T03:02:47.244Z,0
2016-12-21T03:03:46.369Z,0
2016-12-21T03:04:48.197Z,0
2016-12-21T03:05:47.647Z,0
2016-12-21T03:06:46.645Z,0
2016-12-21T03:07:47.337Z,0
2016-12-21T03:08:47.297Z,0
2016-12-21T03:09:47.394Z,0
2016-12-21T03:10:47.651Z,0
2016-12-21T03:11:47.419Z,0
2016-12-21T03:12:47.004Z,0
2016-12-21T03:13:48.296Z,0
2016-12-21T03:14:47.641Z,0
2016-12-21T03:15:47.473Z,0
2016-12-21T03:16:47.213Z,0
2016-12-21T03:17:47.350Z,0
2016-12-21T03:18:47.352Z,0
2016-12-21T03:19:47.363Z,0
2016-12-21T03:20:46.745Z,0
2016-12-21T03:21:47.205Z,0
2016-12-21T03:22:47.530Z,0
2016-12-21T03:23:47.481Z,0
2016-12-21T03:24:46.508Z,0
2016-12-21T03:25:46.935Z,0
2016-12-21T03:26:48.047Z,0
2016-12-21T03:27:46.796Z,0
2016-12-21T03:28:47.572Z,0
2016-12-21T03:29:47.483Z,0
2016-12-21T03:30:47.459Z,0
2016-12-21T03:31:47.442Z,0
2016-12-21T03:32:47.135Z,0
2016-12-21T03:33:47.459Z,0
2016-12-21T03:34:47.884Z,0
2016-12-21T03:35:48.208Z,0
2016-12-21T03:36:46.901Z,0
2016-12-21T03:37:47.709Z,0
2016-12-21T03:38:47.541Z,0
2016-12-21T03:39:48.760Z,0
2016-12-21T03:40:47.555Z,0
2016-12-21T03:41:47.764Z,0
2016-12-21T03:42:47.568Z,0
2016-12-21T03:43:47.528Z,0
2016-12-21T03:44:47.214Z,0
2016-12-21T03:45:47.406Z,0
2016-12-21T03:46:47.068Z,0
2016-12-21T03:47:47.252Z,0
2016-12-21T03:48:47.893Z,0
2016-12-21T03:49:47.302Z,0
2016-12-21T03:50:49.273Z,0
2016-12-21T03:51:47.414Z,0
2016-12-21T03:52:47.328Z,0
2016-12-21T03:53:47.594Z,0
2016-12-21T03:54:47.337Z,0
2016-12-21T03:55:47.341Z,0
2016-12-21T03:56:47.040Z,0
2016-12-21T03:57:47.046Z,0
2016-12-21T03:58:47.680Z,0
2016-12-21T03:59:48.120Z,0
2016-12-21T04:00:47.381Z,0
2016-12-21T04:01:47.759Z,0
2016-12-21T04:02:47.342Z,0
2016-12-21T04:03:48.246Z,0
2016-12-21T04:04:47.666Z,0
2016-12-21T04:05:47.400Z,0
2016-12-21T04:06:47.728Z,0
2016-12-21T04:07:47.474Z,0
2016-12-21T04:08:47.071Z,0
2016-12-21T04:09:47.806Z,0
2016-12-21T04:10:47.236Z,0
2016-12-21T04:11:47.499Z,0
2016-12-21T04:12:49.312Z,0
2016-12-21T04:13:47.418Z,0
2016-12-21T04:14:47.726Z,0
2016-12-21T04:15:47.435Z,0
2016-12-21T04:16:47.440Z,0
2016-12-21T04:17:47.525Z,0
2016-12-21T04:18:47.502Z,0
2016-12-21T04:19:47.198Z,0
2016-12-21T04:20:48.091Z,0
2016-12-21T04:21:47.323Z,0
2016-12-21T04:22:47.892Z,0
2016-12-21T04:23:49.102Z,0
2016-12-21T04:24:47.810Z,0
2016-12-21T04:25:48.150Z,0
2016-12-21T04:26:47.517Z,0
2016-12-21T04:27:47.567Z,0
2016-12-21T04:28:47.520Z,0
2016-12-21T04:29:47.312Z,0
2016-12-21T04:30:48.260Z,0
2016-12-21T04:31:47.960Z,0
2016-12-21T04:32:47.863Z,0
2016-12-21T04:33:47.558Z,0
2016-12-21T04:34:49.295Z,0
2016-12-21T04:35:47.887Z,0
2016-12-21T04:36:47.806Z,0
2016-12-21T04:37:47.900Z,0
2016-12-21T04:38:47.378Z,0
2016-12-21T04:39:47.595Z,0
2016-12-21T04:40:47.967Z,0
2016-12-21T04:41:47.404Z,0
2016-12-21T04:42:47.670Z,0
2016-12-21T04:43:47.682Z,0
2016-12-21T04:44:47.686Z,0
2016-12-21T04:45:48.826Z,0
2016-12-21T04:46:47.653Z,0
2016-12-21T04:47:47.978Z,0
2016-12-21T04:48:47.719Z,0
2016-12-21T04:49:47.457Z,0
2016-12-21T04:50:47.410Z,0
2016-12-21T04:51:48.129Z,0
2016-12-21T04:52:47.509Z,0
2016-12-21T04:53:48.108Z,0
2016-12-21T04:54:48.066Z,0
2016-12-21T04:55:47.447Z,0
2016-12-21T04:56:48.964Z,0
2016-12-21T04:57:48.369Z,0
2016-12-21T04:58:48.353Z,0
2016-12-21T04:59:48.360Z,0
2016-12-21T05:00:49.153Z,0
2016-12-21T05:01:48.162Z,0
2016-12-21T05:02:47.443Z,0
2016-12-21T05:03:47.812Z,0
2016-12-21T05:04:47.818Z,0
2016-12-21T05:05:47.561Z,0
2016-12-21T05:06:48.447Z,0
2016-12-21T05:07:48.952Z,0
2016-12-21T05:08:48.524Z,0
2016-12-21T05:09:47.854Z,0
2016-12-21T05:10:48.127Z,0
2016-12-21T05:11:49.234Z,0
2016-12-21T05:12:47.882Z,0
2016-12-21T05:13:47.622Z,0
2016-12-21T05:14:47.890Z,0
2016-12-21T05:15:47.892Z,0
2016-12-21T05:16:48.214Z,0
2016-12-21T05:17:48.169Z,0
2016-12-21T05:18:48.017Z,0
2016-12-21T05:19:48.283Z,0
2016-12-21T05:20:50.116Z,0
2016-12-21T05:21:48.297Z,0
2016-12-21T05:22:48.854Z,0
2016-12-21T05:23:48.207Z,0
2016-12-21T05:24:48.218Z,0
2016-12-21T05:25:47.646Z,0
2016-12-21T05:26:47.296Z,0
2016-12-21T05:27:48.075Z,0
2016-12-21T05:28:48.609Z,0
2016-12-21T05:29:47.629Z,0
2016-12-21T05:30:48.330Z,0
2016-12-21T05:31:49.878Z,0
2016-12-21T05:32:48.273Z,0
2016-12-21T05:33:48.917Z,0
2016-12-21T05:34:48.074Z,0
2016-12-21T05:35:48.036Z,0
2016-12-21T05:36:48.455Z,0
2016-12-21T05:37:47.734Z,0
2016-12-21T05:38:48.314Z,0
2016-12-21T05:39:48.372Z,0
2016-12-21T05:40:48.744Z,0
2016-12-21T05:41:48.027Z,0
2016-12-21T05:42:49.794Z,0
2016-12-21T05:43:48.083Z,0
2016-12-21T05:44:48.293Z,0
2016-12-21T05:45:47.839Z,0
2016-12-21T05:46:47.746Z,0
2016-12-21T05:47:48.214Z,0
2016-12-21T05:48:47.759Z,0
2016-12-21T05:49:48.486Z,0
2016-12-21T05:50:48.811Z,0
2016-12-21T05:51:48.143Z,0
2016-12-21T05:52:48.410Z,0
2016-12-21T05:53:49.241Z,0
2016-12-21T05:54:47.850Z,0
2016-12-21T05:55:48.792Z,0
2016-12-21T05:56:48.174Z,0
2016-12-21T05:57:47.921Z,0
2016-12-21T05:58:47.565Z,0
2016-12-21T05:59:48.152Z,0
2016-12-21T06:00:47.840Z,0
2016-12-21T06:01:48.158Z,0
2016-12-21T06:02:48.466Z,0
2016-12-21T06:03:48.641Z,0
2016-12-21T06:04:48.993Z,0
2016-12-21T06:05:48.122Z,0
2016-12-21T06:06:48.368Z,0
2016-12-21T06:07:48.304Z,0
2016-12-21T06:08:49.457Z,0
2016-12-21T06:09:48.216Z,0
2016-12-21T06:10:48.537Z,0
2016-12-21T06:11:48.237Z,0
2016-12-21T06:12:48.962Z,0
2016-12-21T06:13:48.869Z,0
2016-12-21T06:14:48.298Z,0
2016-12-21T06:15:48.621Z,0
2016-12-21T06:16:48.625Z,0
2016-12-21T06:17:48.273Z,0
2016-12-21T06:18:48.686Z,0
2016-12-21T06:19:49.489Z,0
2016-12-21T06:20:48.286Z,0
2016-12-21T06:21:48.291Z,0
2016-12-21T06:22:47.987Z,0
2016-12-21T06:23:48.403Z,0
2016-12-21T06:24:48.722Z,0
2016-12-21T06:25:48.417Z,0
2016-12-21T06:26:47.799Z,0
2016-12-21T06:27:48.699Z,0
2016-12-21T06:28:50.627Z,0
2016-12-21T06:29:48.084Z,0
2016-12-21T06:30:49.052Z,0
2016-12-21T06:31:48.101Z,0
2016-12-21T06:32:48.677Z,0
2016-12-21T06:33:48.428Z,0
2016-12-21T06:34:48.739Z,0
2016-12-21T06:35:48.496Z,0
2016-12-21T06:36:48.442Z,0
2016-12-21T06:37:49.052Z,0
2016-12-21T06:38:48.409Z,0
2016-12-21T06:39:48.550Z,0
2016-12-21T06:40:48.785Z,0
2016-12-21T06:41:49.537Z,0
2016-12-21T06:42:48.486Z,0
2016-12-21T06:43:48.494Z,0
2016-12-21T06:44:48.858Z,0
2016-12-21T06:45:48.818Z,0
2016-12-21T06:46:48.509Z,0
2016-12-21T06:47:48.251Z,0
2016-12-21T06:48:49.148Z,0
2016-12-21T06:49:48.529Z,0
2016-12-21T06:50:49.533Z,0
2016-12-21T06:51:48.535Z,0
2016-12-21T06:52:49.601Z,0
2016-12-21T06:53:49.180Z,0
2016-12-21T06:54:48.831Z,0
2016-12-21T06:55:48.836Z,0
2016-12-21T06:56:48.991Z,0
2016-12-21T06:57:48.894Z,0
2016-12-21T06:58:48.230Z,0
2016-12-21T06:59:49.011Z,0
2016-12-21T07:00:48.554Z,0
2016-12-21T07:01:48.295Z,0
2016-12-21T07:02:48.616Z,0
2016-12-21T07:03:49.355Z,0
2016-12-21T07:04:48.946Z,0
2016-12-21T07:05:50.643Z,0
2016-12-21T07:06:48.332Z,0
2016-12-21T07:07:49.265Z,0
2016-12-21T07:08:48.657Z,0
2016-12-21T07:09:48.981Z,0
2016-12-21T07:10:48.985Z,0
2016-12-21T07:11:48.317Z,0
2016-12-21T07:12:48.639Z,0
2016-12-21T07:13:48.951Z,0
2016-12-21T07:14:48.752Z,0
2016-12-21T07:15:48.398Z,0
2016-12-21T07:16:50.476Z,0
2016-12-21T07:17:48.725Z,0
2016-12-21T07:18:49.429Z,0
2016-12-21T07:19:49.045Z,0
2016-12-21T07:20:49.006Z,0
2016-12-21T07:21:48.433Z,0
2016-12-21T07:22:48.701Z,0
2016-12-21T07:23:48.712Z,0
2016-12-21T07:24:49.394Z,0
2016-12-21T07:25:49.037Z,0
2016-12-21T07:26:49.173Z,0
2016-12-21T07:28:04.655Z,0
2016-12-21T07:28:49.109Z,0
2016-12-21T07:29:49.062Z,0
2016-12-21T07:30:48.445Z,0
2016-12-21T07:31:48.766Z,0
2016-12-21T07:32:49.400Z,0
2016-12-21T07:33:48.481Z,0
2016-12-21T07:34:49.099Z,0
2016-12-21T07:35:48.530Z,0
2016-12-21T07:36:50.280Z,0
2016-12-21T07:37:48.862Z,0
2016-12-21T07:38:49.523Z,0
2016-12-21T07:39:49.203Z,0
2016-12-21T07:40:50.952Z,0
2016-12-21T07:41:48.885Z,0
2016-12-21T07:42:48.884Z,0
2016-12-21T07:43:48.950Z,0
2016-12-21T07:44:49.780Z,0
2016-12-21T07:45:48.909Z,0
2016-12-21T07:46:48.242Z,5
2016-12-21T07:47:48.872Z,5
2016-12-21T07:48:48.890Z,5
2016-12-21T07:49:49.909Z,5
2016-12-21T07:50:48.897Z,5
2016-12-21T07:51:48.640Z,5
2016-12-21T07:52:48.647Z,5
2016-12-21T07:53:49.285Z,5
2016-12-21T07:54:49.550Z,5
2016-12-21T07:55:48.991Z,5
2016-12-21T07:56:49.669Z,5
2016-12-21T07:57:48.368Z,5
2016-12-21T07:58:49.365Z,5
2016-12-21T07:59:49.061Z,5
2016-12-21T08:00:49.923Z,5
2016-12-21T08:01:49.335Z,10
2016-12-21T08:02:49.077Z,10
2016-12-21T08:03:49.034Z,10
2016-12-21T08:04:50.105Z,10
2016-12-21T08:05:49.313Z,10
2016-12-21T08:06:49.007Z,10
2016-12-21T08:07:49.377Z,10
2016-12-21T08:08:49.384Z,10
2016-12-21T08:09:48.770Z,10
2016-12-21T08:10:49.403Z,10
2016-12-21T08:11:49.928Z,10
2016-12-21T08:12:49.417Z,10
2016-12-21T08:13:49.415Z,10
2016-12-21T08:14:49.478Z,10
2016-12-21T08:15:50.229Z,10
2016-12-21T08:16:49.441Z,10
2016-12-21T08:17:49.400Z,10
2016-12-21T08:18:49.417Z,10
2016-12-21T08:19:48.885Z,10
2016-12-21T08:20:49.421Z,10
2016-12-21T08:21:49.115Z,10
2016-12-21T08:22:49.471Z,10
2016-12-21T08:23:49.184Z,10
2016-12-21T08:24:51.223Z,10
2016-12-21T08:25:49.507Z,10
2016-12-21T08:26:50.099Z,10
2016-12-21T08:27:48.901Z,10
2016-12-21T08:28:49.527Z,15
2016-12-21T08:29:49.224Z,15
2016-12-21T08:30:48.709Z,15
2016-12-21T08:31:49.321Z,10
2016-12-21T08:32:49.607Z,10
2016-12-21T08:33:49.250Z,10
2016-12-21T08:34:49.913Z,10
2016-12-21T08:35:51.278Z,15
2016-12-21T08:36:49.364Z,15
2016-12-21T08:37:49.795Z,15
2016-12-21T08:38:48.975Z,15
2016-12-21T08:39:49.295Z,15
2016-12-21T08:40:49.249Z,15
2016-12-21T08:41:48.998Z,20
2016-12-21T08:42:49.728Z,20
2016-12-21T08:43:49.962Z,20
2016-12-21T08:44:49.284Z,20
2016-12-21T08:45:49.342Z,15
2016-12-21T08:46:48.927Z,15
2016-12-21T08:47:49.144Z,15
2016-12-21T08:48:50.271Z,15
2016-12-21T08:49:50.049Z,15
2016-12-21T08:50:49.323Z,15
2016-12-21T08:51:50.016Z,15
2016-12-21T08:52:49.123Z,15
2016-12-21T08:53:49.674Z,20
2016-12-21T08:54:49.485Z,20
2016-12-21T08:55:48.797Z,20
2016-12-21T08:56:49.363Z,20
2016-12-21T08:57:50.915Z,20
2016-12-21T08:58:49.378Z,20
2016-12-21T08:59:50.114Z,20
2016-12-21T09:00:49.712Z,20
2016-12-21T09:01:49.143Z,20
2016-12-21T09:02:49.145Z,20
2016-12-21T09:03:49.510Z,20
2016-12-21T09:04:49.471Z,20
2016-12-21T09:05:49.747Z,20
2016-12-21T09:06:48.863Z,20
2016-12-21T09:07:49.807Z,20
2016-12-21T09:08:49.185Z,20
2016-12-21T09:09:49.609Z,20
2016-12-21T09:10:50.006Z,20
2016-12-21T09:11:49.471Z,20
2016-12-21T09:12:51.355Z,20
2016-12-21T09:13:49.799Z,20
2016-12-21T09:14:49.805Z,20
2016-12-21T09:15:48.977Z,20
2016-12-21T09:16:49.829Z,20
2016-12-21T09:17:49.831Z,20
2016-12-21T09:18:49.312Z,20
2016-12-21T09:19:50.394Z,20
2016-12-21T09:20:49.900Z,25
2016-12-21T09:21:49.969Z,25
2016-12-21T09:22:50.314Z,25
2016-12-21T09:23:51.484Z,25
2016-12-21T09:24:50.191Z,25
2016-12-21T09:25:49.678Z,25
2016-12-21T09:26:49.320Z,25
2016-12-21T09:27:49.904Z,25
2016-12-21T09:28:49.389Z,25
2016-12-21T09:29:49.650Z,30
2016-12-21T09:30:49.924Z,30
2016-12-21T09:31:49.982Z,30
2016-12-21T09:32:50.196Z,30
2016-12-21T09:33:49.742Z,30
2016-12-21T09:34:51.520Z,35
2016-12-21T09:35:50.325Z,35
2016-12-21T09:36:49.396Z,35
2016-12-21T09:37:49.720Z,35
2016-12-21T09:38:50.793Z,35
2016-12-21T09:39:49.732Z,40
2016-12-21T09:40:49.473Z,40
2016-12-21T09:41:49.755Z,40
2016-12-21T09:42:49.406Z,45
2016-12-21T09:43:50.018Z,45
2016-12-21T09:44:50.090Z,45
2016-12-21T09:45:51.330Z,45
2016-12-21T09:46:50.147Z,45
2016-12-21T09:47:50.266Z,45
2016-12-21T09:48:50.160Z,45
2016-12-21T09:49:50.074Z,45
2016-12-21T09:50:49.869Z,45
2016-12-21T09:51:50.453Z,45
2016-12-21T09:52:50.147Z,45
2016-12-21T09:53:50.151Z,45
2016-12-21T09:54:49.798Z,45
2016-12-21T09:55:49.907Z,45
2016-12-21T09:56:51.461Z,45
2016-12-21T09:57:50.497Z,45
2016-12-21T09:58:50.488Z,50
2016-12-21T09:59:50.663Z,60
2016-12-21T10:00:50.213Z,60
2016-12-21T10:01:49.904Z,55
2016-12-21T10:02:49.556Z,55
2016-12-21T10:03:50.235Z,50
2016-12-21T10:04:49.668Z,50
2016-12-21T10:05:50.253Z,50
2016-12-21T10:06:49.949Z,45
2016-12-21T10:07:51.477Z,45
2016-12-21T10:08:50.332Z,45
2016-12-21T10:09:50.431Z,45
2016-12-21T10:10:50.337Z,45
2016-12-21T10:11:49.679Z,50
2016-12-21T10:12:49.997Z,50
2016-12-21T10:13:50.316Z,50
2016-12-21T10:14:50.014Z,50
2016-12-21T10:15:50.285Z,50
2016-12-21T10:16:49.980Z,45
2016-12-21T10:17:50.149Z,45
2016-12-21T10:18:51.457Z,45
2016-12-21T10:19:50.729Z,45
2016-12-21T10:20:49.900Z,45
2016-12-21T10:21:50.698Z,45
2016-12-21T10:22:49.773Z,45
2016-12-21T10:23:50.041Z,45
2016-12-21T10:24:49.854Z,45
2016-12-21T10:25:49.739Z,40
2016-12-21T10:26:50.733Z,40
2016-12-21T10:27:50.170Z,40
2016-12-21T10:28:49.812Z,40
2016-12-21T10:29:51.315Z,40
2016-12-21T10:30:50.820Z,40
2016-12-21T10:31:50.829Z,40
2016-12-21T10:32:50.737Z,40
2016-12-21T10:33:51.528Z,35
2016-12-21T10:34:50.491Z,35
2016-12-21T10:35:50.500Z,35
2016-12-21T10:36:50.555Z,35
2016-12-21T10:37:50.512Z,35
2016-12-21T10:38:50.520Z,35
2016-12-21T10:39:50.630Z,35
2016-12-21T10:40:50.891Z,35
2016-12-21T10:41:50.545Z,35
2016-12-21T10:42:50.919Z,35
2016-12-21T10:43:50.246Z,35
2016-12-21T10:44:51.522Z,35
2016-12-21T10:45:50.527Z,35
2016-12-21T10:46:50.632Z,35
2016-12-21T10:47:50.283Z,35
2016-12-21T10:48:50.289Z,35
2016-12-21T10:49:50.350Z,30
2016-12-21T10:50:50.257Z,30
2016-12-21T10:51:51.031Z,30
2016-12-21T10:52:50.055Z,30
2016-12-21T10:53:50.639Z,30
2016-12-21T10:54:50.282Z,30
2016-12-21T10:55:51.663Z,30
2016-12-21T10:56:50.815Z,30
2016-12-21T10:58:05.525Z,30
2016-12-21T10:58:50.991Z,30
2016-12-21T10:59:50.743Z,30
2016-12-21T11:00:50.957Z,30
2016-12-21T11:01:50.389Z,30
2016-12-21T11:02:50.381Z,30
2016-12-21T11:03:50.407Z,30
2016-12-21T11:04:50.411Z,30
2016-12-21T11:05:50.732Z,30
2016-12-21T11:06:51.526Z,30
2016-12-21T11:07:50.744Z,30
2016-12-21T11:08:50.862Z,30
2016-12-21T11:09:50.750Z,30
2016-12-21T11:10:50.767Z,30
2016-12-21T11:11:50.441Z,30
2016-12-21T11:12:50.156Z,30
2016-12-21T11:13:50.219Z,30
2016-12-21T11:14:51.167Z,30
2016-12-21T11:15:50.494Z,30
2016-12-21T11:16:50.764Z,30
2016-12-21T11:17:51.523Z,30
2016-12-21T11:18:50.520Z,30
2016-12-21T11:19:50.164Z,30
2016-12-21T11:20:50.585Z,30
2016-12-21T11:21:50.857Z,30
2016-12-21T11:22:50.237Z,30
2016-12-21T11:23:50.657Z,35
2016-12-21T11:24:50.615Z,30
2016-12-21T11:25:50.891Z,30
2016-12-21T11:26:52.222Z,30
2016-12-21T11:28:05.422Z,35
2016-12-21T11:28:51.047Z,35
2016-12-21T11:29:50.892Z,35
2016-12-21T11:30:50.581Z,35
2016-12-21T11:31:51.243Z,30
2016-12-21T11:32:50.990Z,30
2016-12-21T11:33:50.912Z,30
2016-12-21T11:34:51.009Z,30
2016-12-21T11:35:50.625Z,30
2016-12-21T11:36:50.968Z,30
2016-12-21T11:37:52.028Z,30
2016-12-21T11:38:50.704Z,30
2016-12-21T11:39:51.343Z,30
2016-12-21T11:40:50.635Z,30
2016-12-21T11:41:52.663Z,30
2016-12-21T11:42:50.966Z,30
2016-12-21T11:43:51.173Z,30
2016-12-21T11:44:51.034Z,30
2016-12-21T11:45:51.355Z,30
2016-12-21T11:46:50.672Z,30
2016-12-21T11:47:50.839Z,30
2016-12-21T11:48:52.163Z,30
2016-12-21T11:49:50.443Z,25
2016-12-21T11:50:51.568Z,25
2016-12-21T11:51:51.356Z,25
2016-12-21T11:52:52.917Z,25
2016-12-21T11:53:51.101Z,25
2016-12-21T11:54:50.841Z,25
2016-12-21T11:55:50.536Z,25
2016-12-21T11:56:51.183Z,25
2016-12-21T11:57:51.397Z,30
2016-12-21T11:58:50.827Z,30
2016-12-21T11:59:50.830Z,30
2016-12-21T12:00:50.987Z,25
2016-12-21T12:01:51.699Z,25
2016-12-21T12:02:50.851Z,25
2016-12-21T12:03:53.025Z,25
2016-12-21T12:04:51.441Z,25
2016-12-21T12:05:50.878Z,25
2016-12-21T12:06:51.246Z,30
2016-12-21T12:07:51.305Z,30
2016-12-21T12:08:50.946Z,30
2016-12-21T12:09:50.904Z,30
2016-12-21T12:10:51.492Z,30
2016-12-21T12:11:50.657Z,30
2016-12-21T12:12:51.220Z,30
2016-12-21T12:13:51.562Z,30
2016-12-21T12:14:52.635Z,30
2016-12-21T12:15:51.266Z,30
2016-12-21T12:16:51.800Z,30
2016-12-21T12:17:51.675Z,30
2016-12-21T12:18:51.337Z,30
2016-12-21T12:19:50.984Z,30
2016-12-21T12:20:51.614Z,30
2016-12-21T12:21:51.046Z,30
2016-12-21T12:22:50.639Z,30
2016-12-21T12:23:51.161Z,30
2016-12-21T12:24:50.744Z,30
2016-12-21T12:25:52.992Z,30
2016-12-21T12:26:51.041Z,30
2016-12-21T12:27:51.751Z,30
2016-12-21T12:28:51.386Z,30
2016-12-21T12:29:51.639Z,30
2016-12-21T12:30:51.021Z,30
2016-12-21T12:31:51.096Z,30
2016-12-21T12:32:50.456Z,30
2016-12-21T12:33:50.727Z,30
2016-12-21T12:34:51.295Z,30
2016-12-21T12:35:50.845Z,30
2016-12-21T12:36:50.854Z,30
2016-12-21T12:37:50.443Z,30
2016-12-21T12:38:52.012Z,30
2016-12-21T12:39:51.111Z,30
2016-12-21T12:40:51.458Z,30
2016-12-21T12:41:51.772Z,30
2016-12-21T12:42:50.589Z,30
2016-12-21T12:43:51.166Z,30
2016-12-21T12:44:51.813Z,30
2016-12-21T12:45:51.757Z,30
2016-12-21T12:46:51.446Z,30
2016-12-21T12:47:53.041Z,30
2016-12-21T12:48:50.893Z,30
2016-12-21T12:49:51.768Z,30
2016-12-21T12:50:51.479Z,30
2016-12-21T12:51:51.501Z,30
2016-12-21T12:52:51.910Z,30
2016-12-21T12:53:51.501Z,30
2016-12-21T12:54:51.564Z,30
2016-12-21T12:55:51.933Z,25
2016-12-21T12:56:51.570Z,25
2016-12-21T12:57:51.210Z,25
2016-12-21T12:58:52.831Z,25
2016-12-21T12:59:51.283Z,25
2016-12-21T13:00:51.631Z,25
2016-12-21T13:01:51.289Z,25
2016-12-21T13:02:51.618Z,25
2016-12-21T13:03:51.329Z,25
2016-12-21T13:04:51.005Z,25
2016-12-21T13:05:51.311Z,25
2016-12-21T13:06:51.599Z,25
2016-12-21T13:07:51.613Z,25
2016-12-21T13:08:51.405Z,25
2016-12-21T13:09:52.433Z,25
2016-12-21T13:10:51.368Z,25
2016-12-21T13:11:51.415Z,25
2016-12-21T13:12:51.070Z,25
2016-12-21T13:13:52.551Z,25
2016-12-21T13:14:51.352Z,25
2016-12-21T13:15:51.360Z,25
2016-12-21T13:16:51.782Z,25
2016-12-21T13:17:51.682Z,25
2016-12-21T13:18:51.533Z,25
2016-12-21T13:19:51.440Z,25
2016-12-21T13:20:52.155Z,25
2016-12-21T13:21:51.720Z,25
2016-12-21T13:22:52.039Z,25
2016-12-21T13:23:51.461Z,25
2016-12-21T13:24:53.131Z,25
2016-12-21T13:25:52.103Z,25
2016-12-21T13:26:51.183Z,25
2016-12-21T13:27:51.495Z,25
2016-12-21T13:28:52.584Z,25
2016-12-21T13:29:51.466Z,25
2016-12-21T13:30:51.527Z,25
2016-12-21T13:31:52.493Z,25
2016-12-21T13:32:51.657Z,25
2016-12-21T13:33:51.644Z,25
2016-12-21T13:34:51.863Z,25
2016-12-21T13:35:52.928Z,25
2016-12-21T13:36:51.306Z,25
2016-12-21T13:37:51.984Z,20
2016-12-21T13:38:51.372Z,20
2016-12-21T13:39:52.223Z,20
2016-12-21T13:40:51.910Z,20
2016-12-21T13:41:51.339Z,20
2016-12-21T13:42:51.000Z,20
2016-12-21T13:43:51.931Z,20
2016-12-21T13:44:51.941Z,20
2016-12-21T13:45:51.338Z,20
2016-12-21T13:46:52.920Z,20
2016-12-21T13:47:51.715Z,20
2016-12-21T13:48:51.398Z,20
2016-12-21T13:49:51.665Z,20
2016-12-21T13:50:51.622Z,20
2016-12-21T13:51:52.100Z,20
2016-12-21T13:52:52.012Z,20
2016-12-21T13:53:51.956Z,20
2016-12-21T13:54:52.374Z,20
2016-12-21T13:55:52.247Z,20
2016-12-21T13:56:51.137Z,20
2016-12-21T13:57:52.789Z,20
2016-12-21T13:58:52.307Z,20
2016-12-21T13:59:52.002Z,20
2016-12-21T14:00:51.484Z,15
2016-12-21T14:01:52.070Z,15
2016-12-21T14:02:51.999Z,15
2016-12-21T14:03:52.084Z,15
2016-12-21T14:04:52.196Z,15
2016-12-21T14:05:51.781Z,15
2016-12-21T14:06:52.453Z,15
2016-12-21T14:07:51.746Z,15
2016-12-21T14:08:52.608Z,15
2016-12-21T14:09:52.076Z,15
2016-12-21T14:10:51.508Z,15
2016-12-21T14:11:52.092Z,15
2016-12-21T14:12:52.412Z,15
2016-12-21T14:13:51.893Z,15
2016-12-21T14:14:51.905Z,15
2016-12-21T14:15:51.863Z,15
2016-12-21T14:16:52.177Z,15
2016-12-21T14:17:52.882Z,15
2016-12-21T14:18:52.508Z,15
2016-12-21T14:19:52.489Z,15
2016-12-21T14:20:51.897Z,15
2016-12-21T14:21:53.772Z,10
2016-12-21T14:22:52.224Z,10
2016-12-21T14:23:51.609Z,10
2016-12-21T14:24:52.336Z,10
2016-12-21T14:25:51.888Z,10
2016-12-21T14:26:51.995Z,10
2016-12-21T14:27:52.627Z,10
2016-12-21T14:28:51.964Z,10
2016-12-21T14:29:51.700Z,10
2016-12-21T14:30:52.573Z,10
2016-12-21T14:31:51.929Z,10
2016-12-21T14:32:53.947Z,10